Arctic Bay — 9HTD8 — position and weather

sailwx.info

Track history (hours):
 
Tides and Currents Weather Stations Pressure Air Temp Water Temp Dewpoint Dewpoint Depression Visibility Wind Speed Wind Dir Waves Ship Positions

Arctic Bay

Last reported at 2015-Aug-04 13:33 UTC. Time now 2015-Aug-04 13:49 UTC.
Position N 57°40' E 011°02'.

Length 182 m; draft 11.8 m.

Type: Tanker. MMSI: 256396000.

Date/timePositionNaut miles runAvg speedWind from/ knotsBaromVisibWave heightAir tempDewpointWater temp
2015-Aug-04 13:33N 57°40' E 011°02'1413.6
2015-Aug-04 12:33N 57°31' E 011°20'1413.6
2015-Aug-04 11:33N 57°18' E 011°31'1413.8
2015-Aug-04 10:33N 57°05' E 011°40'1313.4
2015-Aug-04 09:33N 56°53' E 011°48'1212.0
2015-Aug-04 08:33N 56°41' E 011°48'1313.4
2015-Aug-04 07:33N 56°29' E 011°36'1413.5
2015-Aug-04 06:32N 56°17' E 011°23'1414.1
2015-Aug-04 05:34N 56°06' E 011°09'1714.7
2015-Aug-04 04:24N 55°52' E 010°53'1214.5
2015-Aug-04 03:33N 55°40' E 010°47'2113.9
2015-Aug-04 02:04N 55°21' E 011°02'714.4
2015-Aug-04 01:33N 55°14' E 011°06'1312.9
2015-Aug-04 00:33N 55°02' E 010°60'1514.8
2015-Aug-03 23:33N 54°48' E 010°50'1211.6
2015-Aug-03 22:33N 54°37' E 010°57'1413.8
2015-Aug-03 21:33N 54°33' E 011°20'1413.7
2015-Aug-03 20:33N 54°28' E 011°41'1313.3
2015-Aug-03 19:33N 54°26' E 012°04'1111.1
2015-Aug-03 18:33N 54°35' E 012°16'1212.0
2015-Aug-03 17:33N 54°42' E 012°32'1413.7
2015-Aug-03 16:32N 54°49' E 012°54'1313.5
2015-Aug-03 15:33N 54°54' E 013°15'1413.7
2015-Aug-03 14:33N 54°59' E 013°37'1413.6
2015-Aug-03 13:33N 55°04' E 013°59'1313.3
2015-Aug-03 12:33N 55°13' E 014°16'1413.6
2015-Aug-03 11:33N 55°23' E 014°32'1413.6
2015-Aug-03 10:33N 55°31' E 014°52'1413.6
2015-Aug-03 09:34N 55°37' E 015°13'1413.7
2015-Aug-03 08:33N 55°41' E 015°36'4113.4
2015-Aug-03 05:32N 55°51' E 016°46'1313.4
2015-Aug-03 04:33N 55°54' E 017°09'1313.4
2015-Aug-03 03:33N 55°58' E 017°32'1313.2
2015-Aug-03 02:33N 56°03' E 017°53'1313.3
2015-Aug-03 01:33N 56°10' E 018°13'1313.2
2015-Aug-03 00:33N 56°17' E 018°33'22512.5
2015-Aug-02 06:33N 59°27' E 022°21'1212.4
2015-Aug-02 05:33N 59°32' E 022°43'1812.5
2015-Aug-02 04:09N 59°37' E 023°16'812.6
2015-Aug-02 03:33N 59°39' E 023°31'1312.4
2015-Aug-02 02:32N 59°42' E 023°55'1212.5
2015-Aug-02 01:33N 59°46' E 024°18'1312.5
2015-Aug-02 00:33N 59°49' E 024°42'1412.5
2015-Aug-01 23:28N 59°52' E 025°09'4012.4
2015-Aug-01 20:13N 60°00' E 026°27'811.9
2015-Aug-01 19:34N 60°01' E 026°43'10 0.2
2015-Jul-31 00:22N 59°58' E 027°02'1113.6
2015-Jul-30 23:33N 59°60' E 026°41'5413.4
2015-Jul-30 19:33N 59°47' E 024°56'1413.4
2015-Jul-30 18:32N 59°42' E 024°31'1210.6
2015-Jul-30 17:25N 59°30' E 024°32'1 0.9
2015-Jul-30 16:32N 59°29' E 024°31'0 0.0
2015-Jul-30 15:29N 59°29' E 024°31'0 0.0
2015-Jul-30 14:26N 59°29' E 024°31'0 0.0
2015-Jul-30 13:26N 59°29' E 024°32'0 0.1
2015-Jul-30 12:32N 59°29' E 024°31'0 0.0
2015-Jul-30 11:32N 59°29' E 024°31'0 0.0
2015-Jul-30 10:32N 59°29' E 024°31'0 0.0
2015-Jul-30 09:32N 59°29' E 024°31'0 0.0
2015-Jul-30 08:23N 59°29' E 024°31'0 0.0
2015-Jul-30 07:32N 59°29' E 024°31'0 0.0
2015-Jul-30 06:29N 59°29' E 024°31'0 0.0
2015-Jul-30 05:29N 59°29' E 024°31'0 0.0
2015-Jul-30 04:29N 59°29' E 024°31'0 0.0
2015-Jul-30 03:26N 59°29' E 024°31'0 0.0
2015-Jul-30 01:17N 59°29' E 024°31'0 0.0
2015-Jul-30 00:32N 59°29' E 024°31'0 0.0
2015-Jul-29 23:32N 59°29' E 024°31'0 0.0
2015-Jul-29 22:32N 59°29' E 024°31'0 0.0
2015-Jul-29 21:32N 59°29' E 024°31'0 0.0
2015-Jul-29 20:23N 59°29' E 024°31'0 0.0
2015-Jul-29 19:29N 59°29' E 024°31'0 0.0
2015-Jul-29 18:29N 59°29' E 024°31'0 0.0
2015-Jul-29 17:32N 59°29' E 024°31'0 0.0
2015-Jul-29 13:32N 59°29' E 024°31'0 0.0
2015-Jul-29 12:32N 59°29' E 024°31'0 0.0
2015-Jul-29 11:26N 59°29' E 024°31'0 0.0
2015-Jul-29 10:14N 59°29' E 024°31'0 0.0
2015-Jul-29 09:32N 59°29' E 024°31'0 0.0
2015-Jul-29 08:20N 59°29' E 024°31'0 0.0
2015-Jul-29 07:32N 59°29' E 024°31'0 0.0
2015-Jul-29 06:29N 59°29' E 024°31'0 0.0
2015-Jul-29 05:29N 59°29' E 024°31'0 0.1
2015-Jul-29 04:29N 59°29' E 024°31'0 0.0
2015-Jul-29 03:29N 59°29' E 024°31'0 0.0
2015-Jul-29 02:32N 59°29' E 024°31'0 0.0
2015-Jul-29 01:26N 59°29' E 024°31'0 0.0
2015-Jul-29 00:32N 59°29' E 024°31'0 0.0
2015-Jul-28 23:32N 59°29' E 024°31'0 0.0
2015-Jul-28 22:32N 59°29' E 024°31'2 1.6
2015-Jul-28 21:33N 59°30' E 024°28'1313.4
2015-Jul-28 20:33N 59°30' E 024°02'1413.8
2015-Jul-28 19:33N 59°30' E 023°34'1313.4
2015-Jul-28 18:33N 59°30' E 023°08'1413.4
2015-Jul-28 17:33N 59°25' E 022°43'1313.4
2015-Jul-28 16:33N 59°19' E 022°21'1413.7
2015-Jul-28 15:33N 59°10' E 021°59'28614.0
2015-Jul-27 19:09N 55°46' E 015°49'2314.3
2015-Jul-27 17:33N 55°34' E 015°14'1414.3
2015-Jul-27 16:33N 55°28' E 014°51'1414.0
2015-Jul-27 15:33N 55°19' E 014°32'1413.8
2015-Jul-27 14:33N 55°10' E 014°14'1414.0
2015-Jul-27 13:33N 55°11' E 013°50'1414.1
2015-Jul-27 12:33N 55°13' E 013°25'1414.1
2015-Jul-27 11:33N 55°14' E 013°01'1413.6
2015-Jul-27 10:34N 55°18' E 012°38'1312.8
2015-Jul-27 09:33N 55°31' E 012°42'10 9.9
2015-Jul-27 08:33N 55°40' E 012°41'1312.8
2015-Jul-27 07:33N 55°53' E 012°39'1212.3
2015-Jul-27 06:33N 56°05' E 012°35'1111.1
2015-Jul-27 05:33N 56°12' E 012°19'1211.8
2015-Jul-27 04:33N 56°20' E 012°03'1513.7
2015-Jul-27 03:28N 56°34' E 011°57'1314.4
2015-Jul-27 02:33N 56°47' E 011°51'1514.6
2015-Jul-27 01:33N 57°01' E 011°42'1414.3
2015-Jul-27 00:33N 57°14' E 011°33'1514.5
2015-Jul-26 23:33N 57°28' E 011°24'1414.5
2015-Jul-26 22:33N 57°38' E 011°04'1515.2
2015-Jul-26 21:33N 57°47' E 010°42'18812.3
2015-Jul-26 06:15N 55°37' E 006°36'9412.2
2015-Jul-25 22:34N 54°15' E 005°17'1211.7
2015-Jul-25 21:33N 54°04' E 005°08'1111.5
2015-Jul-25 20:33N 53°53' E 005°02'1211.2
2015-Jul-25 19:28N 53°42' E 004°53'1111.3
2015-Jul-25 18:28N 53°32' E 004°45'1010.8
2015-Jul-25 17:33N 53°22' E 004°40'9 9.2
2015-Jul-25 16:33N 53°14' E 004°34'11 8.9
2015-Jul-25 15:18N 53°04' E 004°25'6 8.1
2015-Jul-25 14:34N 52°59' E 004°20'  
Track history (hours):
 
Tides and Currents Weather Stations Pressure Air Temp Water Temp Dewpoint Dewpoint Depression Visibility Wind Speed Wind Dir Waves Ship Positions

Arctic Bay

Last reported at 2015-Aug-04 13:33 UTC. Time now 2015-Aug-04 13:49 UTC.
Position N 57°40' E 011°02'.

Length 182 m; draft 11.8 m.

Type: Tanker. MMSI: 256396000.

Date/timePositionNaut miles runAvg speedWind from/ knotsBaromVisibWave heightAir tempDewpointWater temp
2015-Aug-04 13:33N 57°40' E 011°02'1413.6
2015-Aug-04 12:33N 57°31' E 011°20'1413.6
2015-Aug-04 11:33N 57°18' E 011°31'1413.8
2015-Aug-04 10:33N 57°05' E 011°40'1313.4
2015-Aug-04 09:33N 56°53' E 011°48'1212.0
2015-Aug-04 08:33N 56°41' E 011°48'1313.4
2015-Aug-04 07:33N 56°29' E 011°36'1413.5
2015-Aug-04 06:32N 56°17' E 011°23'1414.1
2015-Aug-04 05:34N 56°06' E 011°09'1714.7
2015-Aug-04 04:24N 55°52' E 010°53'1214.5
2015-Aug-04 03:33N 55°40' E 010°47'2113.9
2015-Aug-04 02:04N 55°21' E 011°02'714.4
2015-Aug-04 01:33N 55°14' E 011°06'1312.9
2015-Aug-04 00:33N 55°02' E 010°60'1514.8
2015-Aug-03 23:33N 54°48' E 010°50'1211.6
2015-Aug-03 22:33N 54°37' E 010°57'1413.8
2015-Aug-03 21:33N 54°33' E 011°20'1413.7
2015-Aug-03 20:33N 54°28' E 011°41'1313.3
2015-Aug-03 19:33N 54°26' E 012°04'1111.1
2015-Aug-03 18:33N 54°35' E 012°16'1212.0
2015-Aug-03 17:33N 54°42' E 012°32'1413.7
2015-Aug-03 16:32N 54°49' E 012°54'1313.5
2015-Aug-03 15:33N 54°54' E 013°15'1413.7
2015-Aug-03 14:33N 54°59' E 013°37'1413.6
2015-Aug-03 13:33N 55°04' E 013°59'1313.3
2015-Aug-03 12:33N 55°13' E 014°16'1413.6
2015-Aug-03 11:33N 55°23' E 014°32'1413.6
2015-Aug-03 10:33N 55°31' E 014°52'1413.6
2015-Aug-03 09:34N 55°37' E 015°13'1413.7
2015-Aug-03 08:33N 55°41' E 015°36'4113.4
2015-Aug-03 05:32N 55°51' E 016°46'1313.4
2015-Aug-03 04:33N 55°54' E 017°09'1313.4
2015-Aug-03 03:33N 55°58' E 017°32'1313.2
2015-Aug-03 02:33N 56°03' E 017°53'1313.3
2015-Aug-03 01:33N 56°10' E 018°13'1313.2
2015-Aug-03 00:33N 56°17' E 018°33'22512.5
2015-Aug-02 06:33N 59°27' E 022°21'1212.4
2015-Aug-02 05:33N 59°32' E 022°43'1812.5
2015-Aug-02 04:09N 59°37' E 023°16'812.6
2015-Aug-02 03:33N 59°39' E 023°31'1312.4
2015-Aug-02 02:32N 59°42' E 023°55'1212.5
2015-Aug-02 01:33N 59°46' E 024°18'1312.5
2015-Aug-02 00:33N 59°49' E 024°42'1412.5
2015-Aug-01 23:28N 59°52' E 025°09'4012.4
2015-Aug-01 20:13N 60°00' E 026°27'811.9
2015-Aug-01 19:34N 60°01' E 026°43'10 0.2
2015-Jul-31 00:22N 59°58' E 027°02'1113.6
2015-Jul-30 23:33N 59°60' E 026°41'5413.4
2015-Jul-30 19:33N 59°47' E 024°56'1413.4
2015-Jul-30 18:32N 59°42' E 024°31'1210.6
2015-Jul-30 17:25N 59°30' E 024°32'1 0.9
2015-Jul-30 16:32N 59°29' E 024°31'0 0.0
2015-Jul-30 15:29N 59°29' E 024°31'0 0.0
2015-Jul-30 14:26N 59°29' E 024°31'0 0.0
2015-Jul-30 13:26N 59°29' E 024°32'0 0.1
2015-Jul-30 12:32N 59°29' E 024°31'0 0.0
2015-Jul-30 11:32N 59°29' E 024°31'0 0.0
2015-Jul-30 10:32N 59°29' E 024°31'0 0.0
2015-Jul-30 09:32N 59°29' E 024°31'0 0.0
2015-Jul-30 08:23N 59°29' E 024°31'0 0.0
2015-Jul-30 07:32N 59°29' E 024°31'0 0.0
2015-Jul-30 06:29N 59°29' E 024°31'0 0.0
2015-Jul-30 05:29N 59°29' E 024°31'0 0.0
2015-Jul-30 04:29N 59°29' E 024°31'0 0.0
2015-Jul-30 03:26N 59°29' E 024°31'0 0.0
2015-Jul-30 01:17N 59°29' E 024°31'0 0.0
2015-Jul-30 00:32N 59°29' E 024°31'0 0.0
2015-Jul-29 23:32N 59°29' E 024°31'0 0.0
2015-Jul-29 22:32N 59°29' E 024°31'0 0.0
2015-Jul-29 21:32N 59°29' E 024°31'0 0.0
2015-Jul-29 20:23N 59°29' E 024°31'0 0.0
2015-Jul-29 19:29N 59°29' E 024°31'0 0.0
2015-Jul-29 18:29N 59°29' E 024°31'0 0.0
2015-Jul-29 17:32N 59°29' E 024°31'0 0.0
2015-Jul-29 13:32N 59°29' E 024°31'0 0.0
2015-Jul-29 12:32N 59°29' E 024°31'0 0.0
2015-Jul-29 11:26N 59°29' E 024°31'0 0.0
2015-Jul-29 10:14N 59°29' E 024°31'0 0.0
2015-Jul-29 09:32N 59°29' E 024°31'0 0.0
2015-Jul-29 08:20N 59°29' E 024°31'0 0.0
2015-Jul-29 07:32N 59°29' E 024°31'0 0.0
2015-Jul-29 06:29N 59°29' E 024°31'0 0.0
2015-Jul-29 05:29N 59°29' E 024°31'0 0.1
2015-Jul-29 04:29N 59°29' E 024°31'0 0.0
2015-Jul-29 03:29N 59°29' E 024°31'0 0.0
2015-Jul-29 02:32N 59°29' E 024°31'0 0.0
2015-Jul-29 01:26N 59°29' E 024°31'0 0.0
2015-Jul-29 00:32N 59°29' E 024°31'0 0.0
2015-Jul-28 23:32N 59°29' E 024°31'0 0.0
2015-Jul-28 22:32N 59°29' E 024°31'2 1.6
2015-Jul-28 21:33N 59°30' E 024°28'1313.4
2015-Jul-28 20:33N 59°30' E 024°02'1413.8
2015-Jul-28 19:33N 59°30' E 023°34'1313.4
2015-Jul-28 18:33N 59°30' E 023°08'1413.4
2015-Jul-28 17:33N 59°25' E 022°43'1313.4
2015-Jul-28 16:33N 59°19' E 022°21'1413.7
2015-Jul-28 15:33N 59°10' E 021°59'28614.0
2015-Jul-27 19:09N 55°46' E 015°49'2314.3
2015-Jul-27 17:33N 55°34' E 015°14'1414.3
2015-Jul-27 16:33N 55°28' E 014°51'1414.0
2015-Jul-27 15:33N 55°19' E 014°32'1413.8
2015-Jul-27 14:33N 55°10' E 014°14'1414.0
2015-Jul-27 13:33N 55°11' E 013°50'1414.1
2015-Jul-27 12:33N 55°13' E 013°25'1414.1
2015-Jul-27 11:33N 55°14' E 013°01'1413.6
2015-Jul-27 10:34N 55°18' E 012°38'1312.8
2015-Jul-27 09:33N 55°31' E 012°42'10 9.9
2015-Jul-27 08:33N 55°40' E 012°41'1312.8
2015-Jul-27 07:33N 55°53' E 012°39'1212.3
2015-Jul-27 06:33N 56°05' E 012°35'1111.1
2015-Jul-27 05:33N 56°12' E 012°19'1211.8
2015-Jul-27 04:33N 56°20' E 012°03'1513.7
2015-Jul-27 03:28N 56°34' E 011°57'1314.4
2015-Jul-27 02:33N 56°47' E 011°51'1514.6
2015-Jul-27 01:33N 57°01' E 011°42'1414.3
2015-Jul-27 00:33N 57°14' E 011°33'1514.5
2015-Jul-26 23:33N 57°28' E 011°24'1414.5
2015-Jul-26 22:33N 57°38' E 011°04'1515.2
2015-Jul-26 21:33N 57°47' E 010°42'18812.3
2015-Jul-26 06:15N 55°37' E 006°36'9412.2
2015-Jul-25 22:34N 54°15' E 005°17'1211.7
2015-Jul-25 21:33N 54°04' E 005°08'1111.5
2015-Jul-25 20:33N 53°53' E 005°02'1211.2
2015-Jul-25 19:28N 53°42' E 004°53'1111.3
2015-Jul-25 18:28N 53°32' E 004°45'1010.8
2015-Jul-25 17:33N 53°22' E 004°40'9 9.2
2015-Jul-25 16:33N 53°14' E 004°34'11 8.9
2015-Jul-25 15:18N 53°04' E 004°25'6 8.1
2015-Jul-25 14:34N 52°59' E 004°20'  

Dump ship's entire track history